Météo des aéroports (METAR) proches de Ticheville

 

LFRG - St Gatien, France
Distance from station: N 52km
Mise à jour: 25/02/2018 01:00
clair
clair
 Wind from E
Vent: E 11 km/h
Température: 0°C
Wind Chill: -4°C
Point de rosée: -6°C
Humidité: 64%
Baromètre: 1019 hPa
Résumé: clair
Visibility: greater than 10 km
2018/02/25 00:00 LFRG 250000Z AUTO 08006KT 040V120 CAVOK 00/M06 Q1019
LFRK - Caen/Carpiquet(A, France
Distance from station: ONO 60km
Mise à jour: 25/02/2018 01:00
clair
clair
 Wind from ENE
Vent: ENE 9 km/h
Température: 1°C
Wind Chill: -2°C
Point de rosée: -5°C
Humidité: 65%
Baromètre: 1019 hPa
Résumé: clair
Visibility: greater than 10 km
2018/02/25 00:00 LFRK 250000Z AUTO 06005KT CAVOK 01/M05 Q1019
 
LFOH - Le Havre/Octevil, France
Distance from station: NNO 69km
Mise à jour: 25/02/2018 01:00
clair
clair
 Wind from ENE
Vent: ENE 17 km/h
Température: 0°C
Wind Chill: -4°C
Point de rosée: -6°C
Humidité: 64%
Baromètre: 1020 hPa
Résumé: clair
Visibility: greater than 10 km
2018/02/25 00:00 LFOH 250000Z AUTO 07009KT CAVOK 00/M06 Q1020
LFOE - Evreux/Fauville, France
Distance from station: E 70km
Mise à jour: 25/02/2018 01:00
clair
clair
 Wind from ENE
Vent: ENE 17 km/h
Température: 0°C
Wind Chill: -4°C
Point de rosée: -6°C
Humidité: 64%
Baromètre: 1019 hPa
Résumé: clair
Visibility: greater than 10 km
2018/02/25 00:00 LFOE 250000Z AUTO 06009KT CAVOK 00/M06 Q1019
 
LFOP - Rouen/Boos (aut), France
Distance from station: NE 83km
Mise à jour: 25/02/2018 01:00
clair
clair
 Wind from ENE
Vent: ENE 22 km/h
Température: -1°C
Wind Chill: -7°C
Point de rosée: -5°C
Humidité: 75%
Baromètre: 1019 hPa
Résumé: clair
Visibility: greater than 10 km
2018/02/25 00:00 LFOP 250000Z AUTO 07012KT CAVOK M01/M05 Q1019
LFRM - Le Mans/Arnage(A, France
Distance from station: S 107km
Mise à jour: 25/02/2018 01:00
clair
clair
 Wind from NE
Vent: NE 11 km/h
Température: 0°C
Wind Chill: -4°C
Point de rosée: -7°C
Humidité: 60%
Baromètre: 1017 hPa
Résumé: clair
Visibility: greater than 10 km
2018/02/25 00:00 LFRM 250000Z AUTO 04006KT CAVOK 00/M07 Q1017